Max Wonder — 9HA4072 — position and weather

sailwx.info

Track history (hours):
 
Tides and Currents Weather Stations Pressure Air Temp Water Temp Dewpoint Dewpoint Depression Visibility Wind Speed Wind Dir Waves Ship Positions

Max Wonder

Last reported at 2018-Feb-06 11:16 UTC. Time now 2018-Feb-21 01:50 UTC.
Position N 27°41' W 015°17'.
Warning: this ship's position is 14 days out of date.

Length 162 m; draft 9.5 m.

Type: Cargo ship. MMSI: 249060000.

Date/timePositionNaut miles runAvg speedWind from/ knotsBaromVisibWave heightAir tempDewpointWater temp
2018-Feb-06 11:16N 27°41' W 015°17'416.1
2018-Feb-06 11:00N 27°45' W 015°16'815.9
2018-Feb-06 10:29N 27°53' W 015°16'714.0
2018-Feb-06 10:00N 27°60' W 015°15'713.0
2018-Feb-06 09:30N 28°05' W 015°20'5 9.5
2018-Feb-06 09:00N 28°07' W 015°25'2 2.8
2018-Feb-06 08:27N 28°09' W 015°25'0 0.0
2018-Feb-06 07:57N 28°09' W 015°25'0 0.0
2018-Feb-06 07:12N 28°09' W 015°25'0 0.0
2018-Feb-06 06:54N 28°09' W 015°25'0 0.0
2018-Feb-06 06:27N 28°09' W 015°25'0 0.0
2018-Feb-06 06:00N 28°09' W 015°25'0 0.0
2018-Feb-06 05:30N 28°09' W 015°25'0 0.0
2018-Feb-06 05:00N 28°09' W 015°25'0 0.0
2018-Feb-06 04:30N 28°09' W 015°25'0 0.0
2018-Feb-06 04:00N 28°09' W 015°25'0 0.0
2018-Feb-06 03:30N 28°09' W 015°25'0 0.0
2018-Feb-06 03:00N 28°09' W 015°25'0 0.0
2018-Feb-06 02:30N 28°09' W 015°25'0 0.0
2018-Feb-06 02:00N 28°09' W 015°25'0 0.0
2018-Feb-06 01:30N 28°09' W 015°25'0 0.0
2018-Feb-06 01:00N 28°09' W 015°25'0 0.0
2018-Feb-06 00:30N 28°09' W 015°25'0 0.0
2018-Feb-06 00:00N 28°09' W 015°25'0 0.0
2018-Feb-05 23:30N 28°09' W 015°25'0 0.6
2018-Feb-05 23:00N 28°09' W 015°25'2 4.8
2018-Feb-05 22:30N 28°07' W 015°23'3 6.5
2018-Feb-05 22:00N 28°06' W 015°19'510.0
2018-Feb-05 21:29N 28°09' W 015°16'5 9.9
2018-Feb-05 21:00N 28°13' W 015°12'510.0
2018-Feb-05 20:29N 28°17' W 015°08'510.0
2018-Feb-05 20:00N 28°21' W 015°05'510.0
2018-Feb-05 19:30N 28°25' W 015°01'713.2
2018-Feb-05 19:00N 28°30' W 014°57'814.9
2018-Feb-05 18:30N 28°36' W 014°52'64514.3
2018-Feb-03 21:30N 35°57' W 005°35'510.0
2018-Feb-03 21:00N 35°60' W 005°30'610.0
2018-Feb-03 20:27N 36°03' W 005°24'4 9.0
2018-Feb-03 19:59N 36°07' W 005°25'1 0.1
2018-Feb-03 05:53N 36°08' W 005°25'0 0.0
2018-Feb-03 05:17N 36°08' W 005°25'0 0.0
2018-Feb-03 04:59N 36°08' W 005°25'1 1.3
2018-Feb-03 03:53N 36°07' W 005°24'3 6.9
2018-Feb-03 03:30N 36°05' W 005°23'2 1.6
2018-Feb-03 02:00N 36°03' W 005°21'0 0.7
2018-Feb-03 01:28N 36°04' W 005°21'0 0.6
2018-Feb-03 00:59N 36°04' W 005°21'1 1.4
2018-Feb-03 00:30N 36°04' W 005°21'2 3.0
2018-Feb-03 00:00N 36°03' W 005°19'2 4.8
2018-Feb-02 23:29N 36°04' W 005°16'1 0.3
2018-Feb-02 20:53N 36°05' W 005°15'1 0.6
2018-Feb-02 19:00N 36°06' W 005°14'1 2.1
2018-Feb-02 18:18N 36°05' W 005°13'1 0.5
2018-Feb-02 16:02N 36°05' W 005°11'3 4.8
2018-Feb-02 15:30N 36°04' W 005°14'1 0.9
2018-Feb-02 14:30N 36°04' W 005°15'1 1.4
2018-Feb-02 14:00N 36°03' W 005°16'1 2.2
2018-Feb-02 13:30N 36°03' W 005°17'1 2.9
2018-Feb-02 13:00N 36°03' W 005°19'1 1.2
2018-Feb-02 12:30N 36°03' W 005°18'2 4.6
2018-Feb-02 12:00N 36°03' W 005°16'2 3.5
2018-Feb-02 11:30N 36°03' W 005°13'1 1.3
2018-Feb-02 11:00N 36°04' W 005°14'2 3.5
2018-Feb-02 10:30N 36°03' W 005°16'1 2.4
2018-Feb-02 10:00N 36°03' W 005°18'1 2.7
2018-Feb-02 09:30N 36°03' W 005°16'0 0.2
2018-Feb-02 09:00N 36°03' W 005°16'0 1.0
2018-Feb-02 08:30N 36°03' W 005°17'1 2.9
2018-Feb-02 08:00N 36°03' W 005°18'2 3.8
2018-Feb-02 07:30N 36°03' W 005°21'1 1.4
2018-Feb-02 07:00N 36°03' W 005°20'2 3.0
2018-Feb-02 06:30N 36°03' W 005°18'0 0.8
2018-Feb-02 06:00N 36°03' W 005°18'1 1.3
2018-Feb-02 05:30N 36°03' W 005°18'1 1.1
2018-Feb-02 05:00N 36°03' W 005°19'1 1.1
2018-Feb-02 04:30N 36°03' W 005°20'3 5.3
2018-Feb-02 04:00N 36°00' W 005°21'3 6.8
2018-Feb-02 03:30N 35°58' W 005°24'  
Track history (hours):
 
Tides and Currents Weather Stations Pressure Air Temp Water Temp Dewpoint Dewpoint Depression Visibility Wind Speed Wind Dir Waves Ship Positions

Max Wonder

Last reported at 2018-Feb-06 11:16 UTC. Time now 2018-Feb-21 01:50 UTC.
Position N 27°41' W 015°17'.
Warning: this ship's position is 14 days out of date.

Length 162 m; draft 9.5 m.

Type: Cargo ship. MMSI: 249060000.

Date/timePositionNaut miles runAvg speedWind from/ knotsBaromVisibWave heightAir tempDewpointWater temp
2018-Feb-06 11:16N 27°41' W 015°17'416.1
2018-Feb-06 11:00N 27°45' W 015°16'815.9
2018-Feb-06 10:29N 27°53' W 015°16'714.0
2018-Feb-06 10:00N 27°60' W 015°15'713.0
2018-Feb-06 09:30N 28°05' W 015°20'5 9.5
2018-Feb-06 09:00N 28°07' W 015°25'2 2.8
2018-Feb-06 08:27N 28°09' W 015°25'0 0.0
2018-Feb-06 07:57N 28°09' W 015°25'0 0.0
2018-Feb-06 07:12N 28°09' W 015°25'0 0.0
2018-Feb-06 06:54N 28°09' W 015°25'0 0.0
2018-Feb-06 06:27N 28°09' W 015°25'0 0.0
2018-Feb-06 06:00N 28°09' W 015°25'0 0.0
2018-Feb-06 05:30N 28°09' W 015°25'0 0.0
2018-Feb-06 05:00N 28°09' W 015°25'0 0.0
2018-Feb-06 04:30N 28°09' W 015°25'0 0.0
2018-Feb-06 04:00N 28°09' W 015°25'0 0.0
2018-Feb-06 03:30N 28°09' W 015°25'0 0.0
2018-Feb-06 03:00N 28°09' W 015°25'0 0.0
2018-Feb-06 02:30N 28°09' W 015°25'0 0.0
2018-Feb-06 02:00N 28°09' W 015°25'0 0.0
2018-Feb-06 01:30N 28°09' W 015°25'0 0.0
2018-Feb-06 01:00N 28°09' W 015°25'0 0.0
2018-Feb-06 00:30N 28°09' W 015°25'0 0.0
2018-Feb-06 00:00N 28°09' W 015°25'0 0.0
2018-Feb-05 23:30N 28°09' W 015°25'0 0.6
2018-Feb-05 23:00N 28°09' W 015°25'2 4.8
2018-Feb-05 22:30N 28°07' W 015°23'3 6.5
2018-Feb-05 22:00N 28°06' W 015°19'510.0
2018-Feb-05 21:29N 28°09' W 015°16'5 9.9
2018-Feb-05 21:00N 28°13' W 015°12'510.0
2018-Feb-05 20:29N 28°17' W 015°08'510.0
2018-Feb-05 20:00N 28°21' W 015°05'510.0
2018-Feb-05 19:30N 28°25' W 015°01'713.2
2018-Feb-05 19:00N 28°30' W 014°57'814.9
2018-Feb-05 18:30N 28°36' W 014°52'64514.3
2018-Feb-03 21:30N 35°57' W 005°35'510.0
2018-Feb-03 21:00N 35°60' W 005°30'610.0
2018-Feb-03 20:27N 36°03' W 005°24'4 9.0
2018-Feb-03 19:59N 36°07' W 005°25'1 0.1
2018-Feb-03 05:53N 36°08' W 005°25'0 0.0
2018-Feb-03 05:17N 36°08' W 005°25'0 0.0
2018-Feb-03 04:59N 36°08' W 005°25'1 1.3
2018-Feb-03 03:53N 36°07' W 005°24'3 6.9
2018-Feb-03 03:30N 36°05' W 005°23'2 1.6
2018-Feb-03 02:00N 36°03' W 005°21'0 0.7
2018-Feb-03 01:28N 36°04' W 005°21'0 0.6
2018-Feb-03 00:59N 36°04' W 005°21'1 1.4
2018-Feb-03 00:30N 36°04' W 005°21'2 3.0
2018-Feb-03 00:00N 36°03' W 005°19'2 4.8
2018-Feb-02 23:29N 36°04' W 005°16'1 0.3
2018-Feb-02 20:53N 36°05' W 005°15'1 0.6
2018-Feb-02 19:00N 36°06' W 005°14'1 2.1
2018-Feb-02 18:18N 36°05' W 005°13'1 0.5
2018-Feb-02 16:02N 36°05' W 005°11'3 4.8
2018-Feb-02 15:30N 36°04' W 005°14'1 0.9
2018-Feb-02 14:30N 36°04' W 005°15'1 1.4
2018-Feb-02 14:00N 36°03' W 005°16'1 2.2
2018-Feb-02 13:30N 36°03' W 005°17'1 2.9
2018-Feb-02 13:00N 36°03' W 005°19'1 1.2
2018-Feb-02 12:30N 36°03' W 005°18'2 4.6
2018-Feb-02 12:00N 36°03' W 005°16'2 3.5
2018-Feb-02 11:30N 36°03' W 005°13'1 1.3
2018-Feb-02 11:00N 36°04' W 005°14'2 3.5
2018-Feb-02 10:30N 36°03' W 005°16'1 2.4
2018-Feb-02 10:00N 36°03' W 005°18'1 2.7
2018-Feb-02 09:30N 36°03' W 005°16'0 0.2
2018-Feb-02 09:00N 36°03' W 005°16'0 1.0
2018-Feb-02 08:30N 36°03' W 005°17'1 2.9
2018-Feb-02 08:00N 36°03' W 005°18'2 3.8
2018-Feb-02 07:30N 36°03' W 005°21'1 1.4
2018-Feb-02 07:00N 36°03' W 005°20'2 3.0
2018-Feb-02 06:30N 36°03' W 005°18'0 0.8
2018-Feb-02 06:00N 36°03' W 005°18'1 1.3
2018-Feb-02 05:30N 36°03' W 005°18'1 1.1
2018-Feb-02 05:00N 36°03' W 005°19'1 1.1
2018-Feb-02 04:30N 36°03' W 005°20'3 5.3
2018-Feb-02 04:00N 36°00' W 005°21'3 6.8
2018-Feb-02 03:30N 35°58' W 005°24'  

Dump ship's entire track history